createdAt,value
2022-11-24T00:00:27.064Z,7.34
2022-11-24T00:02:31.091Z,7.27
2022-11-24T00:04:34.980Z,7.21
2022-11-24T00:06:38.654Z,7.30
2022-11-24T00:08:46.412Z,7.35
2022-11-24T00:10:49.811Z,7.40
2022-11-24T00:12:53.109Z,7.42
2022-11-24T00:14:56.381Z,7.41
2022-11-24T00:16:59.726Z,7.47
2022-11-24T00:19:04.825Z,7.44
2022-11-24T00:21:08.736Z,7.44
2022-11-24T00:23:12.042Z,7.42
2022-11-24T00:25:16.792Z,7.33
2022-11-24T00:27:20.222Z,7.39
2022-11-24T00:29:23.562Z,7.39
2022-11-24T00:31:28.445Z,7.35
2022-11-24T00:33:32.459Z,7.33
2022-11-24T00:35:35.733Z,7.36
2022-11-24T00:37:39.052Z,7.38
2022-11-24T00:39:42.407Z,7.41
2022-11-24T00:41:47.126Z,7.40
2022-11-24T00:43:50.790Z,7.41
2022-11-24T00:45:54.203Z,7.44
2022-11-24T00:47:57.770Z,7.44
2022-11-24T00:50:01.039Z,7.29
2022-11-24T00:52:04.429Z,7.32
2022-11-24T00:54:07.797Z,7.29
2022-11-24T00:56:12.301Z,7.23
2022-11-24T00:58:16.925Z,7.23
2022-11-24T01:00:20.707Z,7.23
2022-11-24T01:02:24.045Z,7.17
2022-11-24T01:04:27.698Z,7.08
2022-11-24T01:06:32.494Z,7.04
2022-11-24T01:08:38.442Z,7.08
2022-11-24T01:10:41.899Z,7.02
2022-11-24T01:12:45.208Z,7.18
2022-11-24T01:14:49.854Z,7.14
2022-11-24T01:16:53.173Z,7.17
2022-11-24T01:18:57.051Z,7.04
2022-11-24T01:21:09.628Z,7.26
2022-11-24T01:23:13.479Z,6.89
2022-11-24T01:25:17.259Z,7.31
2022-11-24T01:27:20.712Z,7.35
2022-11-24T01:29:23.965Z,7.39
2022-11-24T01:31:29.276Z,7.41
2022-11-24T01:33:32.762Z,7.42
2022-11-24T01:35:36.087Z,7.51
2022-11-24T01:37:39.434Z,7.49
2022-11-24T01:39:42.780Z,7.54
2022-11-24T01:41:46.103Z,7.56
2022-11-24T01:43:50.817Z,7.62
2022-11-24T01:45:55.703Z,7.63
2022-11-24T01:48:03.489Z,7.62
2022-11-24T01:50:11.257Z,7.65
2022-11-24T01:52:18.691Z,7.56
2022-11-24T01:54:26.138Z,7.64
2022-11-24T01:56:30.741Z,7.61
2022-11-24T01:58:36.675Z,7.71
2022-11-24T02:00:43.775Z,7.77
2022-11-24T02:02:47.294Z,7.74
2022-11-24T02:04:52.650Z,7.74
2022-11-24T02:07:01.401Z,7.66
2022-11-24T02:09:09.129Z,7.77
2022-11-24T02:11:12.421Z,7.79
2022-11-24T02:13:16.558Z,7.84
2022-11-24T02:15:21.045Z,7.84
2022-11-24T02:17:24.397Z,7.84
2022-11-24T02:19:38.415Z,7.81
2022-11-24T02:21:43.053Z,7.83
2022-11-24T02:23:55.868Z,7.89
2022-11-24T02:26:10.829Z,7.94
2022-11-24T02:28:18.210Z,7.95
2022-11-24T02:30:21.626Z,7.90
2022-11-24T02:32:25.156Z,7.84
2022-11-24T02:34:28.528Z,7.84
2022-11-24T02:36:32.145Z,7.85
2022-11-24T02:38:36.712Z,7.91
2022-11-24T02:40:42.498Z,7.93
2022-11-24T02:42:48.121Z,7.98
2022-11-24T02:44:56.532Z,7.98
2022-11-24T02:47:04.084Z,8.07
2022-11-24T02:49:07.499Z,8.09
2022-11-24T02:51:10.784Z,7.79
2022-11-24T02:53:14.012Z,8.12
2022-11-24T02:55:17.553Z,8.14
2022-11-24T02:57:20.873Z,8.13
2022-11-24T02:59:24.607Z,8.15
2022-11-24T03:01:29.282Z,8.17
2022-11-24T03:03:32.742Z,8.17
2022-11-24T03:05:36.095Z,8.15
2022-11-24T03:07:39.518Z,8.15
2022-11-24T03:09:42.860Z,8.14
2022-11-24T03:11:46.174Z,8.15
2022-11-24T03:13:50.527Z,8.14
2022-11-24T03:15:53.817Z,8.18
2022-11-24T03:17:58.921Z,8.19
2022-11-24T03:20:04.790Z,8.22
2022-11-24T03:22:08.417Z,8.26
2022-11-24T03:24:11.832Z,8.25
2022-11-24T03:26:17.849Z,8.28
2022-11-24T03:28:21.136Z,8.28
2022-11-24T03:30:24.435Z,8.25
2022-11-24T03:32:27.999Z,8.23
2022-11-24T03:34:33.106Z,8.23
2022-11-24T03:36:36.534Z,8.23
2022-11-24T03:38:39.798Z,8.20
2022-11-24T03:40:43.241Z,8.19
2022-11-24T03:42:46.639Z,8.23
2022-11-24T03:44:49.942Z,8.27
2022-11-24T03:46:53.229Z,8.31
2022-11-24T03:48:56.715Z,8.34
2022-11-24T03:51:03.066Z,8.41
2022-11-24T03:53:06.416Z,8.39
2022-11-24T03:55:09.746Z,8.26
2022-11-24T03:57:13.007Z,8.40
2022-11-24T03:59:16.930Z,8.39
2022-11-24T04:01:20.262Z,8.37
2022-11-24T04:03:24.292Z,8.37
2022-11-24T04:05:27.595Z,8.39
2022-11-24T04:07:32.323Z,8.35
2022-11-24T04:09:35.653Z,8.38
2022-11-24T04:11:56.284Z,8.40
2022-11-24T04:13:59.612Z,8.41
2022-11-24T04:16:06.668Z,8.37
2022-11-24T04:18:13.065Z,8.43
2022-11-24T04:20:17.467Z,8.30
2022-11-24T04:22:20.837Z,8.43
2022-11-24T04:24:25.488Z,8.43
2022-11-24T04:26:29.061Z,8.46
2022-11-24T04:28:32.321Z,8.41
2022-11-24T04:30:36.143Z,8.41
2022-11-24T04:32:39.464Z,8.39
2022-11-24T04:34:42.765Z,8.46
2022-11-24T04:36:46.093Z,8.58
2022-11-24T04:39:23.900Z,8.58
2022-11-24T04:41:14.071Z,8.19
2022-11-24T04:43:19.225Z,8.57
2022-11-24T04:45:22.664Z,8.56
2022-11-24T04:47:27.610Z,8.52
2022-11-24T04:49:31.304Z,8.54
2022-11-24T04:51:34.624Z,8.63
2022-11-24T04:53:37.955Z,8.67
2022-11-24T04:55:41.621Z,8.66
2022-11-24T04:57:46.238Z,8.67
2022-11-24T04:59:50.199Z,8.68
2022-11-24T05:01:53.541Z,8.68
2022-11-24T05:03:57.672Z,8.79
2022-11-24T05:06:01.063Z,8.81
2022-11-24T05:08:07.730Z,8.76
2022-11-24T05:10:29.445Z,8.75
2022-11-24T05:12:32.877Z,8.77
2022-11-24T05:14:37.583Z,8.81
2022-11-24T05:16:41.009Z,8.80
2022-11-24T05:18:44.366Z,8.84
2022-11-24T05:20:47.851Z,8.88
2022-11-24T05:22:51.486Z,8.78
2022-11-24T05:24:54.830Z,8.81
2022-11-24T05:26:58.164Z,8.80
2022-11-24T05:29:01.494Z,8.71
2022-11-24T05:31:06.458Z,8.78
2022-11-24T05:33:16.036Z,8.82
2022-11-24T05:35:19.370Z,8.78
2022-11-24T05:37:22.870Z,8.74
2022-11-24T05:39:26.210Z,8.80
2022-11-24T05:41:29.500Z,8.80
2022-11-24T05:43:32.893Z,8.83
2022-11-24T05:45:36.235Z,8.82
2022-11-24T05:47:42.106Z,8.84
2022-11-24T05:49:45.432Z,8.77
2022-11-24T05:51:48.890Z,8.85
2022-11-24T05:53:52.208Z,8.81
2022-11-24T05:55:55.528Z,8.76
2022-11-24T05:58:00.352Z,8.78
2022-11-24T06:00:04.565Z,8.76
2022-11-24T06:02:15.756Z,8.80
2022-11-24T06:04:20.526Z,8.77
2022-11-24T06:06:23.838Z,8.77
2022-11-24T06:08:31.052Z,8.84
2022-11-24T06:10:35.024Z,8.81
2022-11-24T06:12:38.312Z,8.82
2022-11-24T06:14:42.005Z,8.83
2022-11-24T06:16:45.337Z,8.83
2022-11-24T06:18:48.704Z,8.78
2022-11-24T06:21:09.776Z,8.79
2022-11-24T06:23:14.452Z,8.79
2022-11-24T06:25:18.522Z,8.81
2022-11-24T06:27:21.868Z,8.87
2022-11-24T06:29:25.270Z,8.85
2022-11-24T06:31:28.750Z,8.86
2022-11-24T06:33:33.702Z,8.89
2022-11-24T06:35:36.980Z,8.86
2022-11-24T06:37:41.752Z,8.93
2022-11-24T06:39:45.064Z,8.85
2022-11-24T06:41:50.600Z,8.87
2022-11-24T06:43:53.937Z,8.81
2022-11-24T06:45:57.520Z,8.81
2022-11-24T06:48:00.898Z,8.84
2022-11-24T06:50:04.544Z,8.87
2022-11-24T06:52:08.097Z,8.71
2022-11-24T06:54:16.530Z,8.77
2022-11-24T06:56:21.086Z,8.69
2022-11-24T06:58:24.394Z,8.77
2022-11-24T07:00:29.237Z,8.75
2022-11-24T07:02:32.734Z,8.74
2022-11-24T07:04:36.314Z,9.00
2022-11-24T07:06:41.271Z,9.12
2022-11-24T07:08:45.110Z,8.78
2022-11-24T07:10:49.847Z,8.70
2022-11-24T07:12:53.177Z,8.79
2022-11-24T07:14:56.489Z,8.75
2022-11-24T07:17:00.660Z,8.74
2022-11-24T07:19:04.044Z,8.71
2022-11-24T07:21:08.050Z,8.54
2022-11-24T07:23:11.409Z,8.61
2022-11-24T07:25:14.983Z,8.67
2022-11-24T07:27:19.658Z,8.54
2022-11-24T07:29:22.928Z,8.46
2022-11-24T07:31:26.287Z,8.42
2022-11-24T07:33:29.624Z,8.40
2022-11-24T07:35:32.980Z,8.40
2022-11-24T07:37:36.263Z,8.45
2022-11-24T07:39:39.587Z,8.49
2022-11-24T07:41:43.013Z,8.47
2022-11-24T07:43:48.214Z,8.45
2022-11-24T07:45:52.973Z,8.39
2022-11-24T07:47:56.811Z,8.48
2022-11-24T07:50:00.133Z,8.48
2022-11-24T07:52:04.448Z,8.51
2022-11-24T07:54:07.731Z,8.43
2022-11-24T07:56:12.505Z,8.36
2022-11-24T07:58:16.144Z,8.40
2022-11-24T08:00:21.479Z,8.46
2022-11-24T08:02:25.274Z,8.42
2022-11-24T08:04:28.710Z,8.57
2022-11-24T08:06:40.665Z,8.52
2022-11-24T08:08:46.880Z,8.59
2022-11-24T08:10:50.464Z,8.60
2022-11-24T08:12:53.829Z,8.65
2022-11-24T08:14:57.194Z,8.77
2022-11-24T08:17:01.963Z,8.67
2022-11-24T08:19:05.382Z,8.71
2022-11-24T08:21:09.492Z,8.71
2022-11-24T08:23:12.773Z,8.73
2022-11-24T08:25:17.789Z,8.75
2022-11-24T08:27:21.132Z,8.79
2022-11-24T08:29:24.492Z,8.87
2022-11-24T08:31:33.582Z,8.70
2022-11-24T08:33:39.609Z,8.72
2022-11-24T08:35:43.025Z,8.83
2022-11-24T08:37:46.446Z,8.83
2022-11-24T08:39:51.617Z,8.88
2022-11-24T08:41:54.934Z,8.93
2022-11-24T08:43:58.369Z,8.92
2022-11-24T08:46:02.152Z,8.92
2022-11-24T08:48:06.558Z,8.87
2022-11-24T08:50:11.561Z,8.63
2022-11-24T08:52:15.341Z,8.90
2022-11-24T08:54:19.784Z,8.92
2022-11-24T08:56:23.080Z,8.97
2022-11-24T08:58:26.395Z,8.99
2022-11-24T09:00:29.790Z,8.91
2022-11-24T09:02:33.305Z,8.99
2022-11-24T09:04:36.952Z,9.04
2022-11-24T09:06:41.998Z,8.99
2022-11-24T09:08:45.371Z,9.17
2022-11-24T09:10:48.810Z,9.13
2022-11-24T09:12:52.125Z,9.19
2022-11-24T09:14:55.463Z,9.26
2022-11-24T09:16:58.851Z,9.35
2022-11-24T09:19:03.754Z,9.26
2022-11-24T09:21:08.176Z,9.39
2022-11-24T09:23:12.975Z,9.40
2022-11-24T09:25:16.524Z,9.43
2022-11-24T09:27:19.835Z,9.52
2022-11-24T09:29:23.173Z,9.65
2022-11-24T09:31:28.281Z,9.62
2022-11-24T09:33:32.066Z,9.70
2022-11-24T09:35:38.039Z,9.75
2022-11-24T09:37:43.339Z,9.68
2022-11-24T09:39:48.061Z,9.66
2022-11-24T09:42:15.054Z,9.75
2022-11-24T09:44:45.944Z,9.70
2022-11-24T09:46:57.000Z,9.66
2022-11-24T09:49:04.513Z,9.67
2022-11-24T09:51:12.767Z,9.79
2022-11-24T09:53:23.998Z,9.85
2022-11-24T09:55:35.957Z,9.78
2022-11-24T09:57:41.613Z,9.75
2022-11-24T09:59:45.045Z,9.76
2022-11-24T10:01:49.959Z,9.86
2022-11-24T10:03:54.166Z,9.86
2022-11-24T10:05:57.932Z,10.00
2022-11-24T10:08:13.266Z,10.41
2022-11-24T10:10:24.488Z,10.74
2022-11-24T10:12:46.718Z,10.89
2022-11-24T10:15:18.805Z,10.68
2022-11-24T10:17:34.406Z,10.68
2022-11-24T10:19:46.969Z,10.76
2022-11-24T10:22:04.367Z,10.56
2022-11-24T10:24:45.174Z,10.78
2022-11-24T10:26:55.709Z,10.53
2022-11-24T10:29:00.558Z,10.65
2022-11-24T10:31:22.021Z,10.71
2022-11-24T10:33:30.822Z,10.71
2022-11-24T10:35:40.389Z,10.95
2022-11-24T10:37:52.060Z,11.10
2022-11-24T10:40:04.774Z,10.93
2022-11-24T10:42:17.077Z,10.75
2022-11-24T10:44:21.815Z,10.75
2022-11-24T10:46:28.280Z,10.74
2022-11-24T10:48:41.459Z,10.67
2022-11-24T10:50:46.029Z,10.65
2022-11-24T10:52:56.205Z,10.63
2022-11-24T10:55:01.214Z,10.54
2022-11-24T10:57:04.673Z,10.72
2022-11-24T10:59:35.813Z,10.62
2022-11-24T11:01:39.280Z,10.64
2022-11-24T11:03:48.672Z,10.71
2022-11-24T11:05:53.948Z,10.81
2022-11-24T11:08:20.279Z,11.27
2022-11-24T11:10:25.608Z,11.61
2022-11-24T11:12:46.159Z,11.62
2022-11-24T11:14:51.605Z,12.06
2022-11-24T11:16:57.566Z,12.15
2022-11-24T11:19:15.684Z,12.38
2022-11-24T11:21:30.239Z,12.65
2022-11-24T11:23:35.771Z,13.22
2022-11-24T11:25:41.065Z,13.47
2022-11-24T11:27:44.450Z,13.48
2022-11-24T11:34:43.449Z,13.23
2022-11-24T11:36:49.086Z,13.52
2022-11-24T11:38:52.513Z,13.14
2022-11-24T11:40:55.913Z,12.97
2022-11-24T11:43:05.815Z,12.71
2022-11-24T11:45:15.076Z,12.55
2022-11-24T11:47:27.472Z,12.24
2022-11-24T11:49:30.874Z,12.15
2022-11-24T11:51:48.717Z,12.13
2022-11-24T11:53:58.618Z,12.10
2022-11-24T11:56:16.806Z,12.28
2022-11-24T11:58:43.087Z,12.66
2022-11-24T12:00:50.747Z,12.15
2022-11-24T12:03:27.448Z,12.15
2022-11-24T12:05:35.878Z,12.03
2022-11-24T12:07:53.160Z,11.82
2022-11-24T12:10:08.101Z,11.81
2022-11-24T12:12:32.174Z,12.06
2022-11-24T12:14:45.149Z,12.56
2022-11-24T12:17:00.794Z,12.57
2022-11-24T12:19:25.401Z,12.99
2022-11-24T12:21:36.824Z,12.97
2022-11-24T12:23:53.046Z,12.92
2022-11-24T12:26:03.186Z,12.51
2022-11-24T12:28:24.911Z,12.80
2022-11-24T12:30:37.551Z,12.91
2022-11-24T12:33:10.780Z,13.25
2022-11-24T12:35:25.040Z,13.62
2022-11-24T12:37:53.747Z,13.98
2022-11-24T12:40:05.852Z,14.25
2022-11-24T12:42:13.645Z,14.71
2022-11-24T12:44:45.875Z,15.19
2022-11-24T12:46:56.704Z,15.43
2022-11-24T12:49:09.217Z,15.62
2022-11-24T12:51:18.432Z,15.51
2022-11-24T12:53:25.737Z,15.67
2022-11-24T12:55:32.185Z,15.59
2022-11-24T12:57:41.204Z,15.43
2022-11-24T12:59:54.527Z,15.11
2022-11-24T13:02:07.137Z,15.18
2022-11-24T13:04:19.037Z,15.24
2022-11-24T13:06:28.774Z,14.60
2022-11-24T13:08:32.667Z,14.44
2022-11-24T13:13:03.805Z,14.08
2022-11-24T13:15:43.420Z,14.04
2022-11-24T13:18:01.135Z,14.09
2022-11-24T13:20:22.947Z,14.18
2022-11-24T13:22:27.815Z,14.25
2022-11-24T13:24:33.756Z,14.47
2022-11-24T13:26:47.231Z,14.46
2022-11-24T13:29:12.929Z,14.39
2022-11-24T13:31:23.598Z,14.68
2022-11-24T13:33:37.672Z,14.40
2022-11-24T13:35:42.677Z,14.18
2022-11-24T13:37:51.574Z,14.13
2022-11-24T13:39:56.916Z,14.00
2022-11-24T13:42:03.304Z,13.67
2022-11-24T13:44:24.406Z,14.11
2022-11-24T13:47:04.845Z,14.10
2022-11-24T13:49:15.265Z,14.04
2022-11-24T13:51:25.305Z,14.14
2022-11-24T13:53:34.100Z,13.89
2022-11-24T13:55:40.106Z,14.06
2022-11-24T13:57:46.311Z,13.76
2022-11-24T13:59:49.645Z,13.45
2022-11-24T14:01:58.445Z,13.38
2022-11-24T14:04:31.067Z,13.21
2022-11-24T14:06:38.636Z,12.97
2022-11-24T14:08:47.375Z,13.06
2022-11-24T14:10:51.603Z,12.86
2022-11-24T14:13:25.360Z,12.71
2022-11-24T14:15:34.155Z,12.77
2022-11-24T14:17:38.913Z,12.80
2022-11-24T14:19:42.719Z,12.76
2022-11-24T14:21:46.512Z,12.74
2022-11-24T14:23:54.378Z,12.75
2022-11-24T14:25:57.957Z,12.80
2022-11-24T14:28:01.495Z,12.72
2022-11-24T14:30:18.005Z,12.72
2022-11-24T14:32:22.626Z,12.74
2022-11-24T14:34:28.362Z,12.53
2022-11-24T14:36:31.966Z,12.43
2022-11-24T14:38:35.372Z,12.64
2022-11-24T14:40:45.699Z,12.68
2022-11-24T14:42:51.377Z,12.73
2022-11-24T14:44:56.919Z,12.58
2022-11-24T14:47:04.674Z,12.33
2022-11-24T14:49:08.808Z,12.50
2022-11-24T14:51:17.083Z,12.56
2022-11-24T14:53:26.318Z,12.52
2022-11-24T14:55:31.558Z,12.41
2022-11-24T14:57:38.087Z,12.41
2022-11-24T14:59:41.389Z,12.28
2022-11-24T15:01:44.948Z,12.15
2022-11-24T15:04:26.543Z,12.10
2022-11-24T15:06:36.690Z,11.94
2022-11-24T15:08:48.008Z,12.01
2022-11-24T15:10:58.996Z,11.94
2022-11-24T15:13:06.440Z,11.98
2022-11-24T15:15:20.431Z,11.94
2022-11-24T15:17:26.881Z,11.92
2022-11-24T15:19:34.235Z,11.86
2022-11-24T15:21:38.298Z,11.79
2022-11-24T15:23:42.941Z,11.72
2022-11-24T15:25:46.436Z,11.66
2022-11-24T15:27:49.722Z,11.63
2022-11-24T15:29:54.391Z,11.58
2022-11-24T15:31:59.585Z,11.59
2022-11-24T15:34:02.949Z,11.58
2022-11-24T15:36:06.911Z,11.54
2022-11-24T15:38:10.664Z,11.47
2022-11-24T15:40:15.034Z,11.39
2022-11-24T15:42:18.373Z,11.35
2022-11-24T15:44:21.670Z,11.32
2022-11-24T15:46:27.085Z,11.21
2022-11-24T15:48:31.368Z,11.24
2022-11-24T15:50:36.931Z,11.17
2022-11-24T15:52:40.853Z,11.10
2022-11-24T15:54:44.157Z,11.02
2022-11-24T15:56:47.667Z,11.01
2022-11-24T15:58:51.019Z,10.98
2022-11-24T16:00:54.570Z,10.92
2022-11-24T16:03:02.096Z,11.06
2022-11-24T16:05:17.496Z,11.02
2022-11-24T16:07:20.919Z,10.93
2022-11-24T16:09:24.264Z,10.89
2022-11-24T16:11:27.801Z,10.86
2022-11-24T16:13:31.191Z,10.81
2022-11-24T16:15:34.630Z,10.73
2022-11-24T16:17:38.007Z,10.82
2022-11-24T16:19:42.733Z,10.72
2022-11-24T16:21:48.614Z,10.76
2022-11-24T16:23:51.949Z,10.77
2022-11-24T16:25:57.617Z,10.72
2022-11-24T16:28:00.958Z,10.69
2022-11-24T16:30:05.164Z,10.66
2022-11-24T16:32:08.495Z,10.63
2022-11-24T16:34:14.731Z,10.53
2022-11-24T16:36:19.453Z,10.48
2022-11-24T16:38:22.787Z,10.45
2022-11-24T16:40:26.711Z,10.38
2022-11-24T16:42:31.444Z,10.26
2022-11-24T16:44:35.097Z,10.34
2022-11-24T16:46:38.581Z,10.00
2022-11-24T16:48:42.074Z,10.31
2022-11-24T16:50:45.386Z,10.23
2022-11-24T16:52:51.359Z,10.17
2022-11-24T16:54:54.732Z,10.16
2022-11-24T16:56:58.217Z,10.14
2022-11-24T16:59:01.977Z,10.14
2022-11-24T17:01:06.375Z,10.24
2022-11-24T17:03:09.822Z,10.30
2022-11-24T17:05:13.423Z,10.19
2022-11-24T17:07:16.776Z,10.19
2022-11-24T17:09:22.118Z,10.17
2022-11-24T17:11:29.502Z,10.19
2022-11-24T17:13:33.590Z,10.21
2022-11-24T17:15:45.312Z,10.21
2022-11-24T17:18:22.268Z,10.11
2022-11-24T17:20:14.055Z,10.09
2022-11-24T17:22:17.454Z,10.06
2022-11-24T17:24:22.115Z,9.95
2022-11-24T17:26:25.990Z,9.95
2022-11-24T17:28:29.315Z,9.97
2022-11-24T17:30:32.720Z,9.95
2022-11-24T17:32:36.004Z,9.97
2022-11-24T17:34:39.347Z,10.01
2022-11-24T17:36:44.778Z,9.93
2022-11-24T17:38:49.340Z,9.99
2022-11-24T17:40:53.963Z,9.89
2022-11-24T17:42:59.199Z,9.84
2022-11-24T17:45:02.550Z,9.78
2022-11-24T17:47:06.101Z,9.85
2022-11-24T17:49:13.095Z,9.84
2022-11-24T17:51:18.626Z,9.84
2022-11-24T17:53:22.032Z,9.83
2022-11-24T17:55:25.365Z,9.76
2022-11-24T17:57:30.053Z,9.75
2022-11-24T17:59:33.358Z,9.72
2022-11-24T18:01:36.822Z,9.73
2022-11-24T18:03:40.465Z,9.70
2022-11-24T18:05:44.014Z,9.70
2022-11-24T18:07:47.552Z,9.70
2022-11-24T18:09:52.573Z,9.70
2022-11-24T18:11:55.914Z,9.65
2022-11-24T18:14:03.432Z,9.61
2022-11-24T18:16:09.499Z,9.61
2022-11-24T18:18:12.865Z,9.50
2022-11-24T18:20:16.417Z,9.46
2022-11-24T18:22:36.594Z,9.39
2022-11-24T18:24:43.183Z,9.32
2022-11-24T18:26:46.594Z,9.34
2022-11-24T18:28:50.624Z,9.34
2022-11-24T18:31:01.715Z,9.37
2022-11-24T18:33:05.023Z,9.36
2022-11-24T18:35:09.146Z,9.32
2022-11-24T18:37:13.494Z,9.29
2022-11-24T18:39:18.143Z,9.14
2022-11-24T18:41:22.246Z,9.23
2022-11-24T18:43:27.437Z,9.24
2022-11-24T18:45:30.791Z,9.25
2022-11-24T18:47:36.102Z,9.23
2022-11-24T18:49:39.507Z,9.22
2022-11-24T18:51:42.759Z,9.20
2022-11-24T18:53:47.646Z,9.12
2022-11-24T18:55:58.909Z,8.99
2022-11-24T18:58:02.186Z,8.89
2022-11-24T19:00:07.379Z,8.99
2022-11-24T19:02:12.184Z,9.19
2022-11-24T19:04:17.012Z,9.14
2022-11-24T19:06:22.636Z,9.17
2022-11-24T19:08:25.964Z,9.24
2022-11-24T19:10:29.383Z,9.21
2022-11-24T19:12:32.698Z,9.17
2022-11-24T19:14:36.212Z,9.14
2022-11-24T19:16:40.457Z,9.02
2022-11-24T19:18:46.493Z,9.00
2022-11-24T19:20:56.781Z,8.93
2022-11-24T19:23:00.087Z,8.95
2022-11-24T19:25:03.401Z,8.87
2022-11-24T19:27:07.353Z,8.75
2022-11-24T19:29:11.072Z,8.76
2022-11-24T19:31:16.640Z,8.69
2022-11-24T19:33:21.477Z,8.48
2022-11-24T19:35:24.768Z,8.48
2022-11-24T19:37:30.042Z,8.58
2022-11-24T19:39:33.473Z,8.52
2022-11-24T19:41:36.993Z,8.58
2022-11-24T19:43:40.654Z,8.53
2022-11-24T19:45:44.347Z,8.47
2022-11-24T19:47:47.808Z,8.41
2022-11-24T19:49:51.158Z,8.46
2022-11-24T19:51:54.449Z,8.37
2022-11-24T19:53:59.337Z,8.33
2022-11-24T19:56:06.274Z,8.26
2022-11-24T19:58:09.582Z,8.31
2022-11-24T20:00:14.723Z,8.30
2022-11-24T20:02:18.155Z,8.29
2022-11-24T20:04:21.571Z,8.23
2022-11-24T20:06:24.974Z,8.22
2022-11-24T20:08:30.328Z,8.22
2022-11-24T20:10:35.083Z,8.24
2022-11-24T20:12:38.430Z,8.18
2022-11-24T20:14:42.070Z,8.16
2022-11-24T20:16:47.032Z,8.14
2022-11-24T20:18:50.572Z,8.14
2022-11-24T20:20:53.987Z,8.24
2022-11-24T20:22:57.430Z,8.34
2022-11-24T20:25:00.789Z,8.26
2022-11-24T20:27:05.617Z,8.18
2022-11-24T20:29:09.841Z,8.08
2022-11-24T20:31:16.886Z,7.94
2022-11-24T20:33:20.325Z,8.04
2022-11-24T20:35:23.771Z,8.04
2022-11-24T20:37:28.473Z,8.06
2022-11-24T20:39:31.777Z,7.78
2022-11-24T20:41:37.409Z,8.12
2022-11-24T20:43:43.658Z,8.18
2022-11-24T20:45:47.094Z,8.09
2022-11-24T20:47:50.503Z,8.11
2022-11-24T20:49:53.792Z,8.18
2022-11-24T20:51:57.425Z,8.08
2022-11-24T20:54:03.376Z,8.01
2022-11-24T20:56:08.773Z,7.99
2022-11-24T20:58:13.310Z,7.96
2022-11-24T21:00:18.540Z,7.92
2022-11-24T21:02:22.151Z,7.97
2022-11-24T21:04:27.930Z,7.72
2022-11-24T21:06:31.619Z,7.83
2022-11-24T21:08:36.158Z,7.75
2022-11-24T21:10:39.435Z,7.78
2022-11-24T21:12:42.755Z,7.82
2022-11-24T21:14:46.139Z,7.81
2022-11-24T21:16:50.856Z,7.81
2022-11-24T21:18:57.326Z,7.79
2022-11-24T21:21:00.775Z,7.69
2022-11-24T21:23:05.026Z,7.78
2022-11-24T21:25:09.217Z,7.67
2022-11-24T21:27:12.478Z,7.63
2022-11-24T21:29:17.315Z,7.72
2022-11-24T21:31:22.922Z,7.67
2022-11-24T21:33:27.726Z,7.78
2022-11-24T21:35:31.211Z,7.76
2022-11-24T21:37:34.593Z,7.73
2022-11-24T21:39:38.004Z,7.70
2022-11-24T21:41:42.283Z,7.71
2022-11-24T21:43:45.699Z,7.68
2022-11-24T21:45:49.306Z,7.69
2022-11-24T21:47:52.686Z,7.74
2022-11-24T21:49:57.383Z,7.73
2022-11-24T21:52:00.783Z,7.76
2022-11-24T21:54:04.172Z,7.74
2022-11-24T21:56:12.590Z,7.81
2022-11-24T21:58:15.942Z,7.81
2022-11-24T22:00:20.550Z,7.91
2022-11-24T22:02:23.930Z,7.87
2022-11-24T22:04:27.277Z,7.77
2022-11-24T22:06:33.172Z,7.68
2022-11-24T22:08:36.981Z,7.37
2022-11-24T22:10:40.454Z,7.67
2022-11-24T22:12:43.767Z,7.67
2022-11-24T22:14:47.054Z,7.64
2022-11-24T22:16:50.507Z,7.67
2022-11-24T22:18:53.981Z,7.76
2022-11-24T22:20:57.346Z,7.79
2022-11-24T22:23:02.286Z,7.76
2022-11-24T22:25:06.345Z,7.85
2022-11-24T22:27:09.621Z,7.89
2022-11-24T22:29:13.149Z,7.92
2022-11-24T22:31:19.196Z,7.83
2022-11-24T22:33:22.569Z,7.84
2022-11-24T22:35:25.977Z,7.88
2022-11-24T22:37:29.273Z,7.82
2022-11-24T22:39:33.887Z,7.81
2022-11-24T22:41:37.636Z,7.75
2022-11-24T22:43:42.680Z,7.81
2022-11-24T22:45:46.090Z,7.83
2022-11-24T22:47:54.043Z,7.87
2022-11-24T22:49:57.339Z,7.81
2022-11-24T22:52:00.673Z,7.86
2022-11-24T22:54:05.540Z,7.84
2022-11-24T22:56:12.189Z,7.85
2022-11-24T22:58:15.512Z,7.82
2022-11-24T23:00:19.464Z,7.72
2022-11-24T23:02:22.743Z,7.79
2022-11-24T23:04:26.075Z,7.81
2022-11-24T23:06:31.182Z,7.80
2022-11-24T23:08:36.157Z,7.83
2022-11-24T23:10:39.545Z,7.87
2022-11-24T23:12:44.189Z,7.99
2022-11-24T23:14:48.787Z,8.07
2022-11-24T23:16:52.339Z,8.05
2022-11-24T23:18:56.328Z,8.13
2022-11-24T23:21:05.613Z,8.19
2022-11-24T23:23:08.925Z,8.19
2022-11-24T23:25:12.169Z,8.18
2022-11-24T23:27:15.540Z,8.17
2022-11-24T23:29:20.189Z,8.22
2022-11-24T23:31:28.244Z,8.28
2022-11-24T23:33:32.523Z,8.25
2022-11-24T23:35:36.210Z,8.27
2022-11-24T23:38:05.926Z,8.30
2022-11-24T23:40:03.567Z,8.31
2022-11-24T23:42:06.990Z,8.33
2022-11-24T23:44:10.351Z,8.35
2022-11-24T23:46:17.021Z,8.31
2022-11-24T23:48:20.543Z,8.26
2022-11-24T23:50:23.864Z,8.31
2022-11-24T23:52:27.713Z,8.35
2022-11-24T23:54:31.000Z,8.29
2022-11-24T23:56:34.455Z,8.26
2022-11-24T23:58:37.721Z,8.26
